Beni Abbes, Algeria
Current Conditions -  °F | °C
As of 10:00 PM on Friday 31 Oct 2014 (Local Time) from DAOR Reporting Station
Clear Clear  
Wind Chill: 68°   Ceiling: Unl
Heat Index: 68°   Visibility: 6mi
Dew Point: 28°   Wind: 0mph
Humidity: 23%   Direction: NA
Pressure: 30.18"   Gusts: NA
Location:  30.12°N, 2.17°W
Report Text: DAOR 312100Z 00000KT CAVOK 20/M02 Q1022
Loading
Personal Weather Stations






























Interactive Weather Map
Tropical Storm Tracking
New forecast layout! Learn more

10-Day Weather Forecast

Advertisements
Track Severe Weather on mobile